Terminal Aerodrome Forecast
Issued by NWS Tallahassee, FL

Home | Current Version | Previous Version | Text Only | Print | Product List | Glossary On
Versions: 1 2 3 4 5 6 7 8 9 10 11 12 13 14 15 16
000
FTUS42 KTAE 310500
TAFTLH
TAF
KTLH 310537Z 3106/0106 00000KT P6SM BKN250
     FM310700 14006KT P6SM VCTS SCT030CB BKN250
     FM310900 VRB02KT P6SM BKN250
      TEMPO 3110/3113 5SM BR SCT002
     FM311600 13005KT P6SM VCTS SCT040CB
      TEMPO 3119/3123 3SM TSRA BKN030CB
     FM010000 VRB02KT P6SM BKN250=

USA.gov is the U.S. government's official web portal to all federal, state and local government web resources and services.